»·PEaware :: N2193G KPDX-KBFI

N2193G :: KPDX-KBFI

FLIGHT INFORMATION

Flight Status: Arrived
Operator: Privately registered:
United States
More flights under this callsign
Pilot: Horacio G. (12762)
Aircraft: PIPER PA-34 SENECA
(PA34)
More flights by this aircraft type
Origin: KPDX Portland Intl
United States
Destination: KBFI Boeing Field/King Co Intl
United States
More flights between these airports :: More routes between these airports
Route: +PTLD1 BTG BTG OLM2
File this flight plan on PilotEdge
Remarks: RV ILS 14R
Altitude:
(Current/Filed)
7,000ft
Speed:
(Current/Filed)
180kts
Departed: 04-Jul-20 12:03 PM
Arrived: 04-Jul-20 01:00 PM
Distance/Time
Traveled:
118nm/0:56
Distance/Time
To Go:
Arrived

Flight Plot

Page will automatically refresh every two minutes.


Map Options




Map Legend


Flown Route
Filed Route
Departure Airport
Arrival Airport
Navaid (VOR, NDB)
Fix

Horizontal Profiles

Position Reports

Time Latitude Longitude Heading Altitude Ground
Speed
04-Jul-20 11:50 45.584965 -122.577678 50 19ft 0kts
04-Jul-20 11:51 45.584965 -122.577678 50 19ft 0kts
04-Jul-20 11:52 45.584965 -122.577678 50 19ft 0kts
04-Jul-20 11:53 45.584965 -122.577678 50 19ft 0kts
04-Jul-20 11:54 45.584965 -122.577678 50 19ft 0kts
04-Jul-20 11:55 45.584965 -122.577678 50 19ft 0kts
04-Jul-20 11:56 45.584965 -122.577678 50 19ft 0kts
04-Jul-20 11:57 45.584965 -122.577678 50 19ft 0kts
04-Jul-20 11:58 45.585518 -122.577105 25 19ft 15kts
04-Jul-20 11:59 45.589120 -122.584394 296 19ft 28kts
04-Jul-20 12:00 45.592877 -122.593995 300 22ft 26kts
04-Jul-20 12:01 45.594358 -122.597514 349 22ft 0kts
04-Jul-20 12:02 45.587309 -122.577533 120 529ft 115kts
04-Jul-20 12:03 45.589945 -122.534698 77 2529ft 109kts
04-Jul-20 12:04 45.594544 -122.507601 73 3451ft 127kts
04-Jul-20 12:05 45.626252 -122.492260 322 5248ft 133kts
04-Jul-20 12:06 45.650099 -122.524716 316 6682ft 134kts
04-Jul-20 12:07 45.677623 -122.562301 316 8308ft 136kts
04-Jul-20 12:08 45.680381 -122.566062 316 8469ft 137kts
04-Jul-20 12:09 45.723548 -122.590746 357 9996ft 165kts
04-Jul-20 12:10 45.790552 -122.602057 350 9980ft 186kts
04-Jul-20 12:11 45.839675 -122.614298 350 9982ft 186kts
04-Jul-20 12:12 45.892640 -122.627484 350 9999ft 187kts
04-Jul-20 12:13 45.943710 -122.640233 350 10000ft 187kts
04-Jul-20 12:14 45.994883 -122.652998 350 9999ft 187kts
04-Jul-20 12:15 46.046016 -122.665815 350 9998ft 187kts
04-Jul-20 12:16 46.097206 -122.678674 350 10000ft 187kts
04-Jul-20 12:17 46.148365 -122.691542 350 10000ft 187kts
04-Jul-20 12:18 46.199455 -122.704333 350 10000ft 186kts
04-Jul-20 12:19 46.250586 -122.717211 349 9999ft 187kts
04-Jul-20 12:20 46.301800 -122.730152 349 10000ft 187kts
04-Jul-20 12:21 46.352975 -122.743091 350 9999ft 187kts
04-Jul-20 12:22 46.403997 -122.756021 350 10000ft 187kts
04-Jul-20 12:23 46.455225 -122.769037 349 9999ft 187kts
04-Jul-20 12:24 46.506232 -122.782041 349 10000ft 187kts
04-Jul-20 12:25 46.556272 -122.794784 350 9999ft 187kts
04-Jul-20 12:26 46.607380 -122.807830 350 9999ft 187kts
04-Jul-20 12:27 46.658664 -122.820964 350 9999ft 187kts
04-Jul-20 12:28 46.709792 -122.834079 350 9999ft 187kts
04-Jul-20 12:29 46.760889 -122.847179 349 10000ft 187kts
04-Jul-20 12:30 46.811944 -122.860345 349 9999ft 187kts
04-Jul-20 12:31 46.863060 -122.873524 350 9999ft 187kts
04-Jul-20 12:32 46.914157 -122.886725 350 9999ft 187kts
04-Jul-20 12:33 46.965317 -122.899949 350 9999ft 187kts
04-Jul-20 12:34 47.006601 -122.857431 41 10000ft 187kts
04-Jul-20 12:35 47.045945 -122.807203 40 10000ft 187kts
04-Jul-20 12:36 47.085091 -122.757225 41 9999ft 187kts
04-Jul-20 12:37 47.124441 -122.706952 41 9999ft 187kts
04-Jul-20 12:38 47.163659 -122.656697 41 9999ft 187kts
04-Jul-20 12:39 47.203345 -122.607652 42 9980ft 189kts
04-Jul-20 12:40 47.242070 -122.556144 40 9994ft 187kts
04-Jul-20 12:41 47.281108 -122.505957 39 10008ft 187kts
04-Jul-20 12:42 47.325177 -122.475406 354 9400ft 178kts
04-Jul-20 12:43 47.375343 -122.484345 350 7831ft 189kts
04-Jul-20 12:44 47.429216 -122.492253 351 5632ft 186kts
04-Jul-20 12:45 47.479322 -122.498264 356 4054ft 176kts
04-Jul-20 12:46 47.527358 -122.503308 353 2990ft 166kts
04-Jul-20 12:47 47.571218 -122.509990 353 3044ft 156kts
04-Jul-20 12:48 47.614982 -122.516988 354 3039ft 157kts
04-Jul-20 12:49 47.658403 -122.525457 335 3008ft 159kts
04-Jul-20 12:50 47.697917 -122.554519 334 3038ft 157kts
04-Jul-20 12:51 47.733074 -122.546872 75 3036ft 158kts
04-Jul-20 12:52 47.715563 -122.487537 123 3034ft 161kts
04-Jul-20 12:53 47.688571 -122.436119 139 3053ft 151kts
04-Jul-20 12:54 47.655798 -122.409432 146 2694ft 121kts
04-Jul-20 12:55 47.626941 -122.385256 148 2041ft 117kts
04-Jul-20 12:56 47.598665 -122.361028 148 1387ft 118kts
04-Jul-20 12:57 47.570168 -122.336971 148 757ft 115kts
04-Jul-20 12:58 47.542932 -122.313527 149 128ft 96kts
04-Jul-20 12:59 47.533791 -122.304630 72 16ft 0kts
04-Jul-20 13:00 47.537678 -122.306186 330 19ft 37kts

Navigation Log

Ident Type
Flight plan parsing failed, navigation log unavailable